createdAt,value
2022-11-17T00:00:27.402Z,4.22
2022-11-17T00:05:20.887Z,2.63
2022-11-17T00:07:48.988Z,3.47
2022-11-17T00:10:16.818Z,5.35
2022-11-17T00:13:01.968Z,7.50
2022-11-17T00:15:29.131Z,5.38
2022-11-17T00:18:14.413Z,4.88
2022-11-17T00:21:00.452Z,5.13
2022-11-17T00:23:46.763Z,4.70
2022-11-17T00:26:18.432Z,2.92
2022-11-17T00:28:45.350Z,5.07
2022-11-17T00:31:31.616Z,3.05
2022-11-17T00:34:07.570Z,2.95
2022-11-17T00:36:46.497Z,4.18
2022-11-17T00:39:15.384Z,4.55
2022-11-17T00:41:42.352Z,3.85
2022-11-17T00:44:09.312Z,4.05
2022-11-17T00:46:37.377Z,4.13
2022-11-17T00:49:05.850Z,3.65
2022-11-17T00:51:33.085Z,4.25
2022-11-17T00:54:00.226Z,4.03
2022-11-17T00:56:27.335Z,5.22
2022-11-17T00:58:54.298Z,4.28
2022-11-17T01:01:21.430Z,4.90
2022-11-17T01:03:48.475Z,5.07
2022-11-17T01:06:17.586Z,6.28
2022-11-17T01:08:44.397Z,6.07
2022-11-17T01:11:13.731Z,4.82
2022-11-17T01:13:41.505Z,3.90
2022-11-17T01:16:14.487Z,4.38
2022-11-17T01:18:42.383Z,4.75
2022-11-17T01:21:12.468Z,5.22
2022-11-17T01:23:40.843Z,7.10
2022-11-17T01:26:10.951Z,5.10
2022-11-17T01:28:38.417Z,7.68
2022-11-17T01:31:14.380Z,6.18
2022-11-17T01:33:41.568Z,4.38
2022-11-17T01:36:15.500Z,3.78
2022-11-17T01:38:43.021Z,3.33
2022-11-17T01:41:25.723Z,2.65
2022-11-17T01:44:19.111Z,3.67
2022-11-17T01:46:46.396Z,2.35
2022-11-17T01:49:25.075Z,6.65
2022-11-17T01:52:00.924Z,4.55
2022-11-17T01:54:30.316Z,4.25
2022-11-17T01:57:02.694Z,4.88
2022-11-17T01:59:54.243Z,3.55
2022-11-17T02:02:21.210Z,3.88
2022-11-17T02:04:59.935Z,2.45
2022-11-17T02:07:31.012Z,6.60
2022-11-17T02:09:59.313Z,4.72
2022-11-17T02:12:27.420Z,4.45
2022-11-17T02:14:54.772Z,3.03
2022-11-17T02:20:22.204Z,3.40
2022-11-17T02:23:00.809Z,2.47
2022-11-17T02:25:36.851Z,5.75
2022-11-17T02:28:20.767Z,3.10
2022-11-17T02:31:10.884Z,4.32
2022-11-17T02:34:21.102Z,2.78
2022-11-17T02:36:58.575Z,3.17
2022-11-17T02:39:40.513Z,3.33
2022-11-17T02:42:52.524Z,6.80
2022-11-17T02:45:24.815Z,4.97
2022-11-17T02:47:54.636Z,4.45
2022-11-17T02:50:28.004Z,2.90
2022-11-17T02:52:55.584Z,3.55
2022-11-17T02:55:22.292Z,3.72
2022-11-17T02:57:49.748Z,3.95
2022-11-17T03:00:18.723Z,4.90
2022-11-17T03:02:54.151Z,5.47
2022-11-17T03:05:42.360Z,5.28
2022-11-17T03:08:17.158Z,6.80
2022-11-17T03:11:12.056Z,6.45
2022-11-17T03:13:39.461Z,5.43
2022-11-17T03:16:15.216Z,4.75
2022-11-17T03:18:53.128Z,5.45
2022-11-17T03:24:21.037Z,5.97
2022-11-17T03:26:53.386Z,5.43
2022-11-17T03:29:23.011Z,5.63
2022-11-17T03:31:52.283Z,8.27
2022-11-17T03:34:23.556Z,7.22
2022-11-17T03:36:55.700Z,6.50
2022-11-17T03:39:29.405Z,6.45
2022-11-17T03:42:05.221Z,4.75
2022-11-17T03:44:35.373Z,8.82
2022-11-17T03:47:05.578Z,6.15
2022-11-17T03:49:50.061Z,5.25
2022-11-17T03:52:17.284Z,6.15
2022-11-17T03:54:44.022Z,5.90
2022-11-17T03:57:48.786Z,6.68
2022-11-17T04:00:18.001Z,6.47
2022-11-17T04:02:47.774Z,6.07
2022-11-17T04:05:17.482Z,5.43
2022-11-17T04:07:46.933Z,6.45
2022-11-17T04:10:15.672Z,9.07
2022-11-17T04:13:01.259Z,5.43
2022-11-17T04:15:46.687Z,7.32
2022-11-17T04:18:14.036Z,5.68
2022-11-17T04:23:14.030Z,7.93
2022-11-17T04:26:04.835Z,7.03
2022-11-17T04:28:36.880Z,6.63
2022-11-17T04:31:14.874Z,5.28
2022-11-17T04:36:13.790Z,7.20
2022-11-17T04:38:44.957Z,5.57
2022-11-17T04:41:31.807Z,8.05
2022-11-17T04:43:59.094Z,8.07
2022-11-17T04:46:26.434Z,4.75
2022-11-17T04:51:21.894Z,5.60
2022-11-17T04:53:48.900Z,6.95
2022-11-17T04:56:16.186Z,6.90
2022-11-17T04:58:43.371Z,8.73
2022-11-17T05:01:12.841Z,6.40
2022-11-17T05:04:00.529Z,6.40
2022-11-17T05:06:41.283Z,6.07
2022-11-17T05:09:13.800Z,6.88
2022-11-17T05:11:58.958Z,5.18
2022-11-17T05:14:28.155Z,3.45
2022-11-17T05:17:10.768Z,4.85
2022-11-17T05:19:42.044Z,5.60
2022-11-17T05:22:28.916Z,5.60
2022-11-17T05:24:56.228Z,4.38
2022-11-17T05:29:50.196Z,5.18
2022-11-17T05:32:17.389Z,3.80
2022-11-17T05:34:44.075Z,4.88
2022-11-17T05:37:10.854Z,4.65
2022-11-17T05:39:37.540Z,11.00
2022-11-17T05:42:04.436Z,7.95
2022-11-17T05:44:31.120Z,6.28
2022-11-17T05:46:57.924Z,6.75
2022-11-17T05:49:24.603Z,7.90
2022-11-17T05:51:52.851Z,6.43
2022-11-17T05:54:20.320Z,9.23
2022-11-17T05:56:52.550Z,9.85
2022-11-17T05:59:44.616Z,8.63
2022-11-17T06:02:19.567Z,8.95
2022-11-17T06:04:48.493Z,9.85
2022-11-17T06:07:17.711Z,8.48
2022-11-17T06:09:45.691Z,7.13
2022-11-17T06:12:12.444Z,9.35
2022-11-17T06:14:39.759Z,9.18
2022-11-17T06:19:43.895Z,10.27
2022-11-17T06:22:12.780Z,8.07
2022-11-17T06:24:42.781Z,5.82
2022-11-17T06:27:12.062Z,7.28
2022-11-17T06:29:44.059Z,9.75
2022-11-17T06:32:15.874Z,8.77
2022-11-17T06:34:44.303Z,15.15
2022-11-17T06:37:11.515Z,9.70
2022-11-17T06:39:38.310Z,9.65
2022-11-17T06:42:05.178Z,8.88
2022-11-17T06:44:31.879Z,7.65
2022-11-17T06:46:58.633Z,8.77
2022-11-17T06:49:25.360Z,6.35
2022-11-17T06:51:52.231Z,7.65
2022-11-17T06:54:18.945Z,4.88
2022-11-17T06:56:46.030Z,7.18
2022-11-17T06:59:12.773Z,4.82
2022-11-17T07:01:39.467Z,5.18
2022-11-17T07:04:06.725Z,4.07
2022-11-17T07:06:36.710Z,3.38
2022-11-17T07:09:04.282Z,5.95
2022-11-17T07:11:30.969Z,4.05
2022-11-17T07:13:58.275Z,3.30
2022-11-17T07:18:53.117Z,7.65
2022-11-17T07:21:19.813Z,6.25
2022-11-17T07:23:46.493Z,7.10
2022-11-17T07:26:14.339Z,8.25
2022-11-17T07:28:41.140Z,9.52
2022-11-17T07:31:09.080Z,6.75
2022-11-17T07:33:36.404Z,6.85
2022-11-17T07:38:33.290Z,5.47
2022-11-17T07:41:00.751Z,6.32
2022-11-17T07:45:54.947Z,35.22
2022-11-17T07:48:21.836Z,17.00
2022-11-17T07:53:15.670Z,8.48
2022-11-17T07:55:42.328Z,8.95
2022-11-17T07:58:09.222Z,8.55
2022-11-17T08:00:36.711Z,10.25
2022-11-17T08:03:04.422Z,8.82
2022-11-17T08:05:41.767Z,6.70
2022-11-17T08:08:10.336Z,5.43
2022-11-17T08:10:37.211Z,7.55
2022-11-17T08:13:04.295Z,6.95
2022-11-17T08:15:31.320Z,4.88
2022-11-17T08:17:59.802Z,12.07
2022-11-17T08:20:28.591Z,11.10
2022-11-17T08:22:56.153Z,10.60
2022-11-17T08:25:25.194Z,7.68
2022-11-17T08:27:58.098Z,5.80
2022-11-17T08:30:25.961Z,10.38
2022-11-17T08:32:53.924Z,11.98
2022-11-17T08:35:23.292Z,12.55
2022-11-17T08:37:50.059Z,12.93
2022-11-17T08:40:18.157Z,5.78
2022-11-17T08:42:45.272Z,12.00
2022-11-17T08:45:12.784Z,9.90
2022-11-17T08:47:39.630Z,10.23
2022-11-17T08:50:07.172Z,5.95
2022-11-17T08:52:33.904Z,6.43
2022-11-17T08:55:00.745Z,6.68
2022-11-17T08:57:29.772Z,6.43
2022-11-17T08:59:56.552Z,5.75
2022-11-17T09:02:23.326Z,15.35
2022-11-17T09:04:50.554Z,14.55
2022-11-17T09:07:17.807Z,10.35
2022-11-17T09:09:46.147Z,11.48
2022-11-17T09:12:12.876Z,7.40
2022-11-17T09:18:15.761Z,7.57
2022-11-17T09:20:46.149Z,5.75
2022-11-17T09:23:12.988Z,5.75
2022-11-17T09:25:39.917Z,7.65
2022-11-17T09:28:06.704Z,5.05
2022-11-17T09:30:33.543Z,5.25
2022-11-17T09:33:00.321Z,4.20
2022-11-17T09:35:27.004Z,6.22
2022-11-17T09:37:58.935Z,4.32
2022-11-17T09:40:25.620Z,3.78
2022-11-17T09:42:52.328Z,3.28
2022-11-17T09:45:31.721Z,5.13
2022-11-17T09:48:41.110Z,3.78
2022-11-17T09:51:13.734Z,3.88
2022-11-17T09:54:19.005Z,4.07
2022-11-17T09:56:47.514Z,4.68
2022-11-17T09:59:18.077Z,5.35
2022-11-17T10:01:44.821Z,4.78
2022-11-17T10:04:16.833Z,4.63
2022-11-17T10:06:46.406Z,4.45
2022-11-17T10:09:41.217Z,5.15
2022-11-17T10:12:21.060Z,5.40
2022-11-17T10:14:51.755Z,4.10
2022-11-17T10:17:18.526Z,4.50
2022-11-17T10:19:45.499Z,4.80
2022-11-17T10:22:24.109Z,5.25
2022-11-17T10:24:54.945Z,7.43
2022-11-17T10:27:34.152Z,7.95
2022-11-17T10:30:07.055Z,6.90
2022-11-17T10:32:48.184Z,7.10
2022-11-17T10:35:26.854Z,6.90
2022-11-17T10:38:13.025Z,9.05
2022-11-17T10:40:39.794Z,4.35
2022-11-17T10:43:12.495Z,4.80
2022-11-17T10:45:51.083Z,4.18
2022-11-17T10:48:34.009Z,6.13
2022-11-17T10:51:03.867Z,4.65
2022-11-17T10:53:46.296Z,5.97
2022-11-17T10:56:14.807Z,5.20
2022-11-17T10:59:11.594Z,5.72
2022-11-17T11:01:41.150Z,5.88
2022-11-17T11:04:27.072Z,5.68
2022-11-17T11:07:10.636Z,4.85
2022-11-17T11:09:51.032Z,5.40
2022-11-17T11:12:29.979Z,4.32
2022-11-17T11:15:00.345Z,3.30
2022-11-17T11:17:29.483Z,2.53
2022-11-17T11:19:56.617Z,5.28
2022-11-17T11:22:44.689Z,3.42
2022-11-17T11:25:37.536Z,7.45
2022-11-17T11:28:22.560Z,4.25
2022-11-17T11:31:01.915Z,4.50
2022-11-17T11:33:37.721Z,7.75
2022-11-17T11:36:30.926Z,5.78
2022-11-17T11:39:06.528Z,7.10
2022-11-17T11:42:10.442Z,6.60
2022-11-17T11:44:54.611Z,5.18
2022-11-17T11:47:50.191Z,5.68
2022-11-17T11:50:22.126Z,5.40
2022-11-17T11:52:54.166Z,6.60
2022-11-17T11:55:34.466Z,5.65
2022-11-17T11:58:05.043Z,6.53
2022-11-17T12:00:32.914Z,8.65
2022-11-17T12:03:13.160Z,3.97
2022-11-17T12:06:26.142Z,4.63
2022-11-17T12:09:06.518Z,6.68
2022-11-17T12:11:52.868Z,4.88
2022-11-17T12:14:19.732Z,6.25
2022-11-17T12:16:48.423Z,3.35
2022-11-17T12:19:49.967Z,6.03
2022-11-17T12:22:34.391Z,5.25
2022-11-17T12:25:29.235Z,7.85
2022-11-17T12:27:56.058Z,2.70
2022-11-17T12:30:34.650Z,5.18
2022-11-17T12:33:05.446Z,4.75
2022-11-17T12:35:33.509Z,4.55
2022-11-17T12:38:15.230Z,6.03
2022-11-17T12:40:52.611Z,3.22
2022-11-17T12:43:20.449Z,6.07
2022-11-17T12:45:59.115Z,7.82
2022-11-17T12:48:35.022Z,5.95
2022-11-17T12:51:13.748Z,6.57
2022-11-17T12:53:55.963Z,6.85
2022-11-17T12:56:50.093Z,4.75
2022-11-17T12:59:42.589Z,3.95
2022-11-17T13:02:37.331Z,5.45
2022-11-17T13:05:15.800Z,3.60
2022-11-17T13:07:42.572Z,4.85
2022-11-17T13:10:30.239Z,5.03
2022-11-17T13:13:13.340Z,2.67
2022-11-17T13:15:42.064Z,3.10
2022-11-17T13:18:11.672Z,4.13
2022-11-17T13:20:39.488Z,10.27
2022-11-17T13:23:23.624Z,7.65
2022-11-17T13:25:50.941Z,5.43
2022-11-17T13:30:55.179Z,6.13
2022-11-17T13:33:24.223Z,7.07
2022-11-17T13:36:27.091Z,5.18
2022-11-17T13:38:57.171Z,6.90
2022-11-17T13:41:25.748Z,6.07
2022-11-17T13:43:54.243Z,5.93
2022-11-17T13:46:21.140Z,6.55
2022-11-17T13:48:49.647Z,4.07
2022-11-17T13:51:39.150Z,5.35
2022-11-17T13:54:12.962Z,4.88
2022-11-17T13:57:07.308Z,7.63
2022-11-17T13:59:38.935Z,4.78
2022-11-17T14:02:19.263Z,6.78
2022-11-17T14:05:08.009Z,7.07
2022-11-17T14:07:37.371Z,8.93
2022-11-17T14:10:25.478Z,7.78
2022-11-17T14:13:20.341Z,10.57
2022-11-17T14:15:53.755Z,9.48
2022-11-17T14:18:28.475Z,9.02
2022-11-17T14:21:21.726Z,6.85
2022-11-17T14:23:48.402Z,9.10
2022-11-17T14:26:24.413Z,7.32
2022-11-17T14:28:52.657Z,10.90
2022-11-17T14:31:19.521Z,13.00
2022-11-17T14:33:46.510Z,7.82
2022-11-17T14:36:16.254Z,8.82
2022-11-17T14:38:44.714Z,13.40
2022-11-17T14:41:11.553Z,10.70
2022-11-17T14:43:38.296Z,14.95
2022-11-17T14:46:05.290Z,19.33
2022-11-17T14:48:32.009Z,18.17
2022-11-17T14:50:59.520Z,14.93
2022-11-17T14:53:26.720Z,14.60
2022-11-17T14:55:53.645Z,13.55
2022-11-17T14:58:20.635Z,13.02
2022-11-17T15:00:47.457Z,14.55
2022-11-17T15:03:14.219Z,22.67
2022-11-17T15:05:45.888Z,19.35
2022-11-17T15:08:13.308Z,14.35
2022-11-17T15:10:44.773Z,22.05
2022-11-17T15:13:12.259Z,14.88
2022-11-17T15:19:22.630Z,13.05
2022-11-17T15:21:49.382Z,13.82
2022-11-17T15:24:16.218Z,15.52
2022-11-17T15:26:43.135Z,12.27
2022-11-17T15:29:15.051Z,11.13
2022-11-17T15:31:42.321Z,11.82
2022-11-17T15:34:18.595Z,9.10
2022-11-17T15:36:47.033Z,11.38
2022-11-17T15:39:14.419Z,23.38
2022-11-17T15:41:41.292Z,12.38
2022-11-17T15:44:08.042Z,16.52
2022-11-17T15:46:34.911Z,18.75
2022-11-17T15:49:01.642Z,14.43
2022-11-17T15:51:28.973Z,11.55
2022-11-17T15:56:36.176Z,10.93
2022-11-17T15:59:05.069Z,8.23
2022-11-17T16:01:39.016Z,9.43
2022-11-17T16:04:15.464Z,8.57
2022-11-17T16:06:44.136Z,10.52
2022-11-17T16:09:12.224Z,9.63
2022-11-17T16:11:39.454Z,10.98
2022-11-17T16:16:35.702Z,17.73
2022-11-17T16:19:03.042Z,14.80
2022-11-17T16:23:57.728Z,13.88
2022-11-17T16:26:26.133Z,16.23
2022-11-17T16:28:57.597Z,20.33
2022-11-17T16:31:26.649Z,32.92
2022-11-17T16:33:56.444Z,23.63
2022-11-17T16:36:25.591Z,25.60
2022-11-17T16:39:02.081Z,26.85
2022-11-17T16:41:32.218Z,28.20
2022-11-17T16:44:00.025Z,37.88
2022-11-17T16:46:29.154Z,37.65
2022-11-17T16:48:56.628Z,28.27
2022-11-17T16:51:23.672Z,25.48
2022-11-17T16:53:56.375Z,24.45
2022-11-17T16:56:23.243Z,28.13
2022-11-17T16:58:50.601Z,35.75
2022-11-17T17:03:45.869Z,25.95
2022-11-17T17:06:15.449Z,31.10
2022-11-17T17:08:42.350Z,31.17
2022-11-17T17:11:12.045Z,32.25
2022-11-17T17:13:39.616Z,27.85
2022-11-17T17:16:08.579Z,28.65
2022-11-17T17:18:36.348Z,27.17
2022-11-17T17:21:03.726Z,29.38
2022-11-17T17:26:05.181Z,37.42
2022-11-17T17:28:33.284Z,54.60
2022-11-17T17:31:00.579Z,53.67
2022-11-17T17:36:01.965Z,34.65
2022-11-17T17:38:28.741Z,28.13
2022-11-17T17:40:55.427Z,18.83
2022-11-17T17:43:22.444Z,29.00
2022-11-17T17:45:49.130Z,37.10
2022-11-17T17:48:15.843Z,28.55
2022-11-17T17:50:42.712Z,38.63
2022-11-17T17:53:09.384Z,68.82
2022-11-17T17:55:36.101Z,47.80
2022-11-17T17:58:03.052Z,32.03
2022-11-17T18:00:29.742Z,19.48
2022-11-17T18:02:56.480Z,20.13
2022-11-17T18:05:23.201Z,23.65
2022-11-17T18:07:49.992Z,19.80
2022-11-17T18:10:17.180Z,27.80
2022-11-17T18:12:43.936Z,23.00
2022-11-17T18:15:11.125Z,20.67
2022-11-17T18:17:37.818Z,20.38
2022-11-17T18:20:04.909Z,20.48
2022-11-17T18:22:31.601Z,21.52
2022-11-17T18:24:58.544Z,12.07
2022-11-17T18:27:25.222Z,18.42
2022-11-17T18:29:51.952Z,32.45
2022-11-17T18:32:18.660Z,34.60
2022-11-17T18:34:45.331Z,21.02
2022-11-17T18:37:12.015Z,20.48
2022-11-17T18:39:38.694Z,30.38
2022-11-17T18:42:05.501Z,47.17
2022-11-17T18:44:32.257Z,43.17
2022-11-17T18:47:02.758Z,37.65
2022-11-17T18:49:30.800Z,37.92
2022-11-17T18:51:57.517Z,30.83
2022-11-17T18:54:24.206Z,41.22
2022-11-17T18:56:50.963Z,31.23
2022-11-17T18:59:18.565Z,29.92
2022-11-17T19:01:45.505Z,25.27
2022-11-17T19:04:14.303Z,23.45
2022-11-17T19:06:41.079Z,21.45
2022-11-17T19:09:08.224Z,13.60
2022-11-17T19:11:35.071Z,32.03
2022-11-17T19:14:02.972Z,52.70
2022-11-17T19:16:30.194Z,42.95
2022-11-17T19:18:57.566Z,70.97
2022-11-17T19:23:58.147Z,42.17
2022-11-17T19:26:27.375Z,46.05
2022-11-17T19:28:58.779Z,30.55
2022-11-17T19:31:26.322Z,34.75
2022-11-17T19:33:54.323Z,33.25
2022-11-17T19:36:26.369Z,33.90
2022-11-17T19:38:54.635Z,26.63
2022-11-17T19:41:26.666Z,19.27
2022-11-17T19:43:57.737Z,16.17
2022-11-17T19:46:25.781Z,19.98
2022-11-17T19:48:53.112Z,23.45
2022-11-17T19:53:52.608Z,22.52
2022-11-17T19:56:20.647Z,26.35
2022-11-17T19:58:48.176Z,23.27
2022-11-17T20:01:18.272Z,23.40
2022-11-17T20:03:46.187Z,21.95
2022-11-17T20:06:15.888Z,24.23
2022-11-17T20:08:43.245Z,24.50
2022-11-17T20:13:41.605Z,19.45
2022-11-17T20:16:12.684Z,18.02
2022-11-17T20:18:41.557Z,24.10
2022-11-17T20:21:09.667Z,22.08
2022-11-17T20:23:37.975Z,26.40
2022-11-17T20:26:10.563Z,28.90
2022-11-17T20:28:38.404Z,21.55
2022-11-17T20:31:19.968Z,26.25
2022-11-17T20:33:47.829Z,23.88
2022-11-17T20:36:19.828Z,24.75
2022-11-17T20:38:54.812Z,20.00
2022-11-17T20:41:23.302Z,20.75
2022-11-17T20:43:54.940Z,19.98
2022-11-17T20:46:22.780Z,24.30
2022-11-17T20:48:50.253Z,20.98
2022-11-17T20:51:19.380Z,19.10
2022-11-17T20:53:46.629Z,17.23
2022-11-17T20:56:15.920Z,21.40
2022-11-17T20:58:42.732Z,23.20
2022-11-17T21:01:11.979Z,25.95
2022-11-17T21:03:38.755Z,23.30
2022-11-17T21:06:05.984Z,19.80
2022-11-17T21:08:36.384Z,15.35
2022-11-17T21:11:06.121Z,16.70
2022-11-17T21:13:34.496Z,10.90
2022-11-17T21:16:05.109Z,9.80
2022-11-17T21:18:32.212Z,9.90
2022-11-17T21:21:00.171Z,17.08
2022-11-17T21:23:27.717Z,12.25
2022-11-17T21:25:54.523Z,19.85
2022-11-17T21:28:21.554Z,15.40
2022-11-17T21:30:48.466Z,19.83
2022-11-17T21:33:15.132Z,14.00
2022-11-17T21:35:41.846Z,19.55
2022-11-17T21:38:10.652Z,22.83
2022-11-17T21:40:37.384Z,19.63
2022-11-17T21:43:04.456Z,17.45
2022-11-17T21:45:32.823Z,15.13
2022-11-17T21:47:59.740Z,16.92
2022-11-17T21:50:26.520Z,16.20
2022-11-17T21:52:53.244Z,15.07
2022-11-17T21:55:19.954Z,19.02
2022-11-17T21:57:50.541Z,15.60
2022-11-17T22:00:17.859Z,10.10
2022-11-17T22:05:11.489Z,16.40
2022-11-17T22:07:38.244Z,14.95
2022-11-17T22:10:05.527Z,12.48
2022-11-17T22:12:32.188Z,8.43
2022-11-17T22:14:58.849Z,12.27
2022-11-17T22:17:25.504Z,8.05
2022-11-17T22:19:52.242Z,9.60
2022-11-17T22:22:18.906Z,13.30
2022-11-17T22:24:49.614Z,10.05
2022-11-17T22:27:16.727Z,8.43
2022-11-17T22:29:43.531Z,9.95
2022-11-17T22:32:10.255Z,9.95
2022-11-17T22:34:36.994Z,8.95
2022-11-17T22:37:03.760Z,7.75
2022-11-17T22:39:30.414Z,8.20
2022-11-17T22:41:57.238Z,8.90
2022-11-17T22:44:23.944Z,5.45
2022-11-17T22:46:50.796Z,6.20
2022-11-17T22:49:17.816Z,8.88
2022-11-17T22:52:03.316Z,5.18
2022-11-17T22:54:31.066Z,5.22
2022-11-17T22:56:58.299Z,6.32
2022-11-17T22:59:29.194Z,11.82
2022-11-17T23:01:56.118Z,9.20
2022-11-17T23:04:23.277Z,7.85
2022-11-17T23:06:49.971Z,5.05
2022-11-17T23:09:17.231Z,5.95
2022-11-17T23:11:44.404Z,6.82
2022-11-17T23:14:12.963Z,5.22
2022-11-17T23:16:40.515Z,4.28
2022-11-17T23:19:09.505Z,8.20
2022-11-17T23:21:36.248Z,6.68
2022-11-17T23:24:04.275Z,9.77
2022-11-17T23:26:31.011Z,5.57
2022-11-17T23:28:58.233Z,9.13
2022-11-17T23:31:27.150Z,6.07
2022-11-17T23:33:54.098Z,8.32
2022-11-17T23:36:22.347Z,9.25
2022-11-17T23:38:50.243Z,10.13
2022-11-17T23:41:19.341Z,9.63
2022-11-17T23:43:46.622Z,9.95
2022-11-17T23:46:16.254Z,8.52
2022-11-17T23:48:44.176Z,8.45
2022-11-17T23:51:17.381Z,7.50
2022-11-17T23:53:44.412Z,7.47
2022-11-17T23:56:11.268Z,7.68
2022-11-17T23:58:38.271Z,7.55
